Time;durP1;ratioP1;P1;durP2;ratioP2;P2;SDS_P1;SDS_P2;PMS_P1;PMS_P2;Temp;Humidity;BMP_temperature;BMP_pressure;BME280_temperature;BME280_humidity;BME280_pressure;Samples;Min_cycle;Max_cycle;Signal;HPM_P1;HPM_P2
2022/09/13 00:01:14;;;;;;;20.92;16.10;;;;;;;17.20;100.00;100947.91;4840368;29;20044;-79
2022/09/13 00:03:43;;;;;;;19.45;16.08;;;;;;;17.20;100.00;100954.13;4870905;29;20064;-80
2022/09/13 00:06:17;;;;;;;22.50;17.38;;;;;;;17.18;100.00;100957.72;4887219;29;20052;-79
2022/09/13 00:08:47;;;;;;;23.70;16.83;;;;;;;17.18;100.00;100945.28;4868076;29;20055;-79
2022/09/13 00:11:19;;;;;;;28.50;18.93;;;;;;;17.19;100.00;100940.84;4881809;29;20145;-79
2022/09/13 00:13:48;;;;;;;27.52;18.88;;;;;;;17.19;100.00;100947.03;4881445;29;20065;-80
2022/09/13 00:16:19;;;;;;;23.23;17.80;;;;;;;17.17;100.00;100938.22;4858060;29;25415;-82
2022/09/13 00:18:48;;;;;;;24.88;19.63;;;;;;;17.15;100.00;100930.25;4848990;29;20060;-81
2022/09/13 00:21:20;;;;;;;24.85;18.30;;;;;;;17.16;100.00;100928.44;4864870;29;20265;-79
2022/09/13 00:23:51;;;;;;;26.60;19.90;;;;;;;17.15;100.00;100927.59;4890612;29;20052;-79
2022/09/13 00:26:24;;;;;;;28.88;19.20;;;;;;;17.13;100.00;100928.53;4871156;29;20049;-79
2022/09/13 00:28:56;;;;;;;27.48;19.67;;;;;;;17.12;100.00;100921.44;4877640;29;20040;-80
2022/09/13 00:31:26;;;;;;;26.75;19.40;;;;;;;17.12;100.00;100919.66;4857477;29;20060;-79
2022/09/13 00:33:58;;;;;;;25.45;17.92;;;;;;;17.12;100.00;100918.78;4892479;29;20048;-80
2022/09/13 00:36:27;;;;;;;25.67;19.25;;;;;;;17.12;100.00;100909.00;4893376;29;20055;-80
2022/09/13 00:38:55;;;;;;;26.02;18.92;;;;;;;17.12;100.00;100892.16;4874374;29;20047;-80
2022/09/13 00:41:24;;;;;;;25.40;19.10;;;;;;;17.10;100.00;100901.97;4889266;29;20530;-80
2022/09/13 00:44:00;;;;;;;25.30;17.85;;;;;;;17.08;100.00;100898.47;4891941;29;20048;-81
2022/09/13 00:46:32;;;;;;;23.13;16.90;;;;;;;17.07;100.00;100896.72;4846787;29;20406;-81
2022/09/13 00:49:09;;;;;;;21.88;16.33;;;;;;;17.02;100.00;100891.50;4891015;29;20513;-81
2022/09/13 00:51:42;;;;;;;19.77;15.73;;;;;;;16.99;100.00;100888.91;4890677;29;20258;-81
2022/09/13 00:54:13;;;;;;;22.92;16.67;;;;;;;16.98;100.00;100895.16;4875749;29;20482;-81
2022/09/13 00:56:47;;;;;;;20.75;16.10;;;;;;;16.95;100.00;100890.75;4874261;29;20243;-81
2022/09/13 00:59:22;;;;;;;19.83;15.18;;;;;;;16.96;100.00;100894.31;4880231;29;20330;-81
2022/09/13 01:01:53;;;;;;;21.17;16.88;;;;;;;16.94;100.00;100889.03;4892630;29;20064;-80
2022/09/13 01:04:26;;;;;;;25.00;15.70;;;;;;;16.95;100.00;100890.75;4861814;29;20545;-80
2022/09/13 01:06:59;;;;;;;23.77;16.65;;;;;;;16.93;100.00;100889.06;4888927;29;20056;-79
2022/09/13 01:09:32;;;;;;;22.65;16.45;;;;;;;16.92;100.00;100879.34;4876746;29;20160;-80
2022/09/13 01:12:22;;;;;;;21.20;15.80;;;;;;;16.91;100.00;100889.06;4891160;29;20055;-79
2022/09/13 01:14:52;;;;;;;19.27;14.75;;;;;;;16.89;100.00;100876.72;4866121;29;20067;-80
2022/09/13 01:17:20;;;;;;;21.88;15.90;;;;;;;16.87;100.00;100871.44;4862040;29;20060;-81
2022/09/13 01:19:48;;;;;;;22.35;16.92;;;;;;;16.85;100.00;100875.06;4855825;29;20056;-81
2022/09/13 01:22:32;;;;;;;20.38;14.38;;;;;;;16.84;100.00;100867.97;4885489;29;20053;-81
2022/09/13 01:25:13;;;;;;;20.98;15.90;;;;;;;16.83;100.00;100861.78;4866955;29;20056;-80
2022/09/13 01:28:00;;;;;;;22.48;15.45;;;;;;;16.84;100.00;100862.63;4893623;29;20045;-80
2022/09/13 01:30:39;;;;;;;23.88;18.05;;;;;;;16.84;100.00;100860.88;4877174;29;20049;-81
2022/09/13 01:33:38;;;;;;;21.75;16.77;;;;;;;16.85;100.00;100859.94;4838337;29;20056;-80
2022/09/13 01:36:19;;;;;;;23.83;18.00;;;;;;;16.84;100.00;100850.22;4879991;29;20048;-80
2022/09/13 01:39:06;;;;;;;28.00;18.73;;;;;;;16.85;100.00;100851.09;4871776;29;20089;-81
2022/09/13 01:42:03;;;;;;;34.20;21.85;;;;;;;16.84;100.00;100865.28;4870707;29;20048;-81
2022/09/13 01:45:02;;;;;;;32.17;21.45;;;;;;;16.84;100.00;100857.31;4887423;29;20701;-80
2022/09/13 01:47:49;;;;;;;33.25;22.45;;;;;;;16.83;100.00;100853.78;4860043;29;20276;-81
2022/09/13 01:50:41;;;;;;;32.28;21.38;;;;;;;16.85;100.00;100837.78;4844119;29;20514;-80
2022/09/13 01:53:45;;;;;;;32.75;21.58;;;;;;;16.86;100.00;100842.19;4894921;29;20493;-80
2022/09/13 01:56:27;;;;;;;40.95;25.05;;;;;;;16.85;100.00;100836.00;4859440;29;20410;-80
2022/09/13 01:59:08;;;;;;;44.58;25.65;;;;;;;16.84;100.00;100838.69;4893317;29;20060;-80
2022/09/13 02:01:50;;;;;;;42.85;26.20;;;;;;;16.82;100.00;100846.69;4873650;29;20053;-80
2022/09/13 02:04:26;;;;;;;50.35;26.30;;;;;;;16.81;100.00;100839.59;4880003;29;20059;-81
2022/09/13 02:07:16;;;;;;;42.83;24.45;;;;;;;16.80;100.00;100827.19;4861380;29;20037;-80
2022/09/13 02:09:50;;;;;;;37.03;23.15;;;;;;;16.79;100.00;100821.94;4888123;29;20188;-80
2022/09/13 02:12:22;;;;;;;34.97;22.67;;;;;;;16.77;100.00;100836.13;4892106;29;20060;-81
2022/09/13 02:15:21;;;;;;;27.58;18.10;;;;;;;16.75;100.00;100837.97;4892568;29;20060;-80
2022/09/13 02:18:07;;;;;;;30.23;19.90;;;;;;;16.74;100.00;100830.88;4883587;29;20052;-81
2022/09/13 02:20:42;;;;;;;30.00;18.23;;;;;;;16.75;100.00;100827.31;4828727;29;22197;-81
2022/09/13 02:23:19;;;;;;;28.02;18.10;;;;;;;16.75;100.00;100827.31;4882655;29;20055;-81
2022/09/13 02:25:50;;;;;;;25.98;17.15;;;;;;;16.76;100.00;100842.34;4878714;29;20236;-80
2022/09/13 02:28:26;;;;;;;25.83;16.00;;;;;;;16.76;100.00;100831.72;4893153;29;20056;-81
2022/09/13 02:30:57;;;;;;;21.55;15.07;;;;;;;16.77;100.00;100833.47;4875737;29;20353;-81
2022/09/13 02:33:38;;;;;;;22.98;16.63;;;;;;;16.77;100.00;100833.47;4891151;29;20537;-80
2022/09/13 02:36:12;;;;;;;23.23;16.35;;;;;;;16.80;100.00;100831.66;4845545;29;20049;-80
2022/09/13 02:38:54;;;;;;;21.60;15.13;;;;;;;16.80;100.00;100831.66;4862427;29;20260;-80
2022/09/13 02:41:27;;;;;;;20.33;15.45;;;;;;;16.79;100.00;100830.78;4882530;29;21020;-81
2022/09/13 02:44:18;;;;;;;20.77;15.10;;;;;;;16.81;100.00;100838.75;4887003;29;20049;-81
2022/09/13 02:46:50;;;;;;;23.73;16.20;;;;;;;16.82;100.00;100829.84;4881027;29;20044;-80
2022/09/13 02:49:30;;;;;;;23.70;15.18;;;;;;;16.83;100.00;100839.63;4879026;29;20498;-82
2022/09/13 02:52:07;;;;;;;19.23;14.95;;;;;;;16.86;100.00;100845.75;4852956;29;20049;-80
2022/09/13 02:54:38;;;;;;;17.73;14.35;;;;;;;16.90;100.00;100850.09;4889882;29;20053;-80
2022/09/13 02:57:15;;;;;;;25.20;16.38;;;;;;;16.91;100.00;100849.16;4893332;29;20059;-80
2022/09/13 02:59:46;;;;;;;23.48;16.42;;;;;;;16.93;100.00;100849.13;4861019;29;20301;-80
2022/09/13 03:02:18;;;;;;;26.77;18.80;;;;;;;16.95;100.00;100852.63;4877651;29;20062;-80
2022/09/13 03:04:50;;;;;;;25.38;17.17;;;;;;;16.98;100.00;100849.03;4861150;29;20056;-80
2022/09/13 03:07:18;;;;;;;;;;;;;;;16.99;100.00;100851.63;4837237;29;20052;-80
2022/09/13 03:09:57;;;;;;;23.85;15.90;;;;;;;16.99;100.00;100858.75;4890398;29;20340;-80
2022/09/13 03:12:47;;;;;;;19.15;13.23;;;;;;;16.99;100.00;100851.63;4892127;29;20056;-81
2022/09/13 03:15:34;;;;;;;19.67;14.32;;;;;;;17.00;100.00;100863.19;4892004;29;20056;-80
2022/09/13 03:18:18;;;;;;;13.43;10.07;;;;;;;16.99;100.00;100848.09;4876173;29;20048;-80
2022/09/13 03:21:06;;;;;;;9.27;7.95;;;;;;;16.97;100.00;100841.94;4891532;29;20364;-79
2022/09/13 03:23:40;;;;;;;11.63;8.90;;;;;;;16.95;100.00;100850.81;4856907;29;20654;-79
2022/09/13 03:26:26;;;;;;;10.05;8.32;;;;;;;16.94;100.00;100848.22;4885879;29;20063;-79
2022/09/13 03:29:09;;;;;;;8.30;7.22;;;;;;;16.94;100.00;100850.88;4883289;29;20029;-81
2022/09/13 03:32:01;;;;;;;10.18;7.57;;;;;;;16.95;100.00;100860.59;4871483;29;20048;-79
2022/09/13 03:34:38;;;;;;;9.68;7.30;;;;;;;16.95;100.00;100863.28;4880252;29;20067;-80
2022/09/13 03:37:19;;;;;;;11.90;7.70;;;;;;;16.94;100.00;100869.53;4875555;29;20162;-80
2022/09/13 03:40:08;;;;;;;10.63;6.90;;;;;;;16.94;100.00;100866.84;4827034;29;20557;-79
2022/09/13 03:42:37;;;;;;;10.75;6.80;;;;;;;16.93;100.00;100862.44;4884481;29;20296;-80
2022/09/13 03:45:08;;;;;;;16.77;7.22;;;;;;;16.93;100.00;100865.09;4884996;29;20087;-80
2022/09/13 03:47:41;;;;;;;9.65;7.10;;;;;;;16.94;100.00;100861.53;4888402;29;20040;-81
2022/09/13 03:50:17;;;;;;;11.43;7.15;;;;;;;16.94;100.00;100858.88;4877230;29;20511;-79
2022/09/13 03:52:50;;;;;;;9.38;5.68;;;;;;;16.94;100.00;100854.41;4889531;29;20164;-79
2022/09/13 03:55:20;;;;;;;9.18;6.50;;;;;;;16.96;100.00;100859.72;4843249;29;20067;-80
2022/09/13 03:57:49;;;;;;;8.98;4.97;;;;;;;16.96;100.00;100859.72;4889526;29;20044;-79
2022/09/13 04:00:18;;;;;;;11.60;5.65;;;;;;;16.96;100.00;100859.72;4868219;29;20051;-80
2022/09/13 04:02:46;;;;;;;7.30;4.60;;;;;;;16.95;100.00;100853.50;4867725;29;20063;-80
2022/09/13 04:05:15;;;;;;;6.68;4.18;;;;;;;16.95;100.00;100856.16;4877511;29;20160;-80
2022/09/13 04:07:43;;;;;;;6.68;5.30;;;;;;;16.95;100.00;100852.63;4871199;29;20037;-80
2022/09/13 04:10:11;;;;;;;13.65;6.47;;;;;;;16.94;100.00;100858.88;4842355;29;20044;-80
2022/09/13 04:12:41;;;;;;;6.85;4.68;;;;;;;16.94;100.00;100864.19;4873365;29;20052;-80
2022/09/13 04:15:09;;;;;;;6.38;4.53;;;;;;;16.91;100.00;100862.47;4878893;29;20051;-80
2022/09/13 04:17:37;;;;;;;8.10;5.28;;;;;;;16.88;100.00;100862.56;4861305;29;20048;-80
2022/09/13 04:20:06;;;;;;;7.05;4.68;;;;;;;16.89;100.00;100866.94;4866438;29;20410;-80
2022/09/13 04:22:35;;;;;;;7.00;5.20;;;;;;;16.89;100.00;100866.06;4879827;29;20056;-80
2022/09/13 04:25:04;;;;;;;9.50;5.38;;;;;;;16.88;100.00;100867.88;4864790;29;20040;-80
2022/09/13 04:27:34;;;;;;;9.25;6.35;;;;;;;16.89;100.00;100866.94;4839592;29;20500;-82
2022/09/13 04:30:03;;;;;;;9.20;6.43;;;;;;;16.89;100.00;100863.41;4883452;29;20352;-81
2022/09/13 04:32:32;;;;;;;8.18;6.75;;;;;;;16.90;100.00;100863.38;4862742;29;20040;-81
2022/09/13 04:35:02;;;;;;;;;;;;;;;16.89;100.00;100864.28;4871452;29;20052;-80
2022/09/13 04:37:31;;;;;;;12.93;7.03;;;;;;;16.89;100.00;100858.97;4882060;29;20152;-79
2022/09/13 04:39:59;;;;;;;11.82;6.57;;;;;;;16.87;100.00;100860.78;4854523;29;20052;-81
2022/09/13 04:42:28;;;;;;;10.90;6.47;;;;;;;16.87;100.00;100868.78;4863566;29;20615;-81
2022/09/13 04:44:58;;;;;;;10.32;6.43;;;;;;;16.87;100.00;100860.78;4888667;29;20362;-81
2022/09/13 04:47:27;;;;;;;12.23;5.65;;;;;;;16.86;100.00;100859.06;4883546;29;20266;-79
2022/09/13 04:49:55;;;;;;;11.55;5.65;;;;;;;16.86;100.00;100866.13;4877493;29;20044;-81
2022/09/13 04:52:24;;;;;;;8.10;5.82;;;;;;;16.84;100.00;100866.19;4871557;29;20274;-80
2022/09/13 04:54:52;;;;;;;7.45;4.93;;;;;;;16.84;100.00;100873.28;4862305;29;20103;-81
2022/09/13 04:57:24;;;;;;;5.95;4.07;;;;;;;16.83;100.00;100876.88;4839681;29;20149;-80
2022/09/13 04:59:52;;;;;;;9.45;4.70;;;;;;;16.82;100.00;100875.97;4859146;29;20037;-83
2022/09/13 05:02:21;;;;;;;9.45;4.72;;;;;;;16.81;100.00;100881.31;4867546;29;20056;-82
2022/09/13 05:04:49;;;;;;;7.93;3.90;;;;;;;16.80;100.00;100874.22;4876384;29;20040;-78
2022/09/13 05:07:18;;;;;;;7.32;3.95;;;;;;;16.80;100.00;100876.88;4891509;29;20063;-78
2022/09/13 05:09:46;;;;;;;8.18;3.90;;;;;;;16.80;100.00;100876.88;4845045;29;20383;-77
2022/09/13 05:12:15;;;;;;;8.15;3.55;;;;;;;16.80;100.00;100884.88;4827043;29;20055;-78
2022/09/13 05:14:43;;;;;;;6.38;4.00;;;;;;;16.79;100.00;100888.47;4875844;29;20048;-79
2022/09/13 05:17:11;;;;;;;6.97;4.13;;;;;;;16.80;100.00;100896.38;4856961;29;20052;-81
2022/09/13 05:19:40;;;;;;;4.80;3.10;;;;;;;16.82;100.00;100904.34;4852607;29;20033;-81
2022/09/13 05:22:09;;;;;;;6.47;3.45;;;;;;;16.84;100.00;100902.56;4894037;29;20060;-81
2022/09/13 05:24:37;;;;;;;5.30;3.40;;;;;;;16.82;100.00;100910.56;4876530;29;20057;-81
2022/09/13 05:27:07;;;;;;;7.32;2.40;;;;;;;16.80;100.00;100908.81;4836260;29;20044;-80
2022/09/13 05:29:36;;;;;;;8.32;1.98;;;;;;;16.75;100.00;100914.25;4854874;29;20558;-81
2022/09/13 05:32:04;;;;;;;6.15;1.85;;;;;;;16.74;100.00;100916.03;4841998;29;20045;-81
2022/09/13 05:34:32;;;;;;;6.95;1.48;;;;;;;16.72;100.00;100919.63;4883450;29;20059;-81
2022/09/13 05:37:05;;;;;;;10.10;1.80;;;;;;;16.68;100.00;100905.53;4853024;29;20048;-82
2022/09/13 05:39:35;;;;;;;7.82;2.55;;;;;;;16.68;100.00;100913.50;4910255;29;20052;-81
2022/09/13 05:42:23;;;;;;;3.22;1.23;;;;;;;16.65;100.00;100910.03;4854566;29;20036;-83
2022/09/13 05:44:53;;;;;;;7.95;1.80;;;;;;;16.64;100.00;100911.81;4878019;29;20359;-80
2022/09/13 05:47:21;;;;;;;3.95;1.23;;;;;;;16.61;100.00;100900.38;4840157;29;20040;-81
2022/09/13 05:49:50;;;;;;;10.52;2.47;;;;;;;16.60;100.00;100910.13;4877550;29;20055;-79
2022/09/13 05:52:38;;;;;;;4.75;1.83;;;;;;;16.61;100.00;100921.66;4844011;29;21139;-79
2022/09/13 05:55:07;;;;;;;5.90;1.50;;;;;;;16.60;100.00;100917.22;4865939;29;20060;-81
2022/09/13 05:57:36;;;;;;;5.43;1.40;;;;;;;16.62;100.00;100913.63;4836493;29;20071;-79
2022/09/13 06:00:05;;;;;;;5.07;1.67;;;;;;;16.64;100.00;100911.81;4868259;29;20047;-79
2022/09/13 06:02:40;;;;;;;6.70;1.60;;;;;;;16.67;100.00;100910.88;4869839;29;20075;-79
2022/09/13 06:05:09;;;;;;;4.68;1.48;;;;;;;16.71;100.00;100913.44;4886273;29;20044;-79
2022/09/13 06:07:41;;;;;;;9.52;1.90;;;;;;;16.75;100.00;100911.59;4875735;29;20032;-79
2022/09/13 06:10:10;;;;;;;11.38;1.75;;;;;;;16.78;100.00;100911.50;4875075;29;20051;-80
2022/09/13 06:12:39;;;;;;;7.93;2.00;;;;;;;16.81;100.00;100913.25;4861656;29;20485;-80
2022/09/13 06:15:09;;;;;;;7.47;1.45;;;;;;;16.83;100.00;100911.47;4839165;29;20302;-80
2022/09/13 06:17:37;;;;;;;6.43;1.70;;;;;;;16.84;100.00;100908.78;4856888;29;20037;-78
2022/09/13 06:20:07;;;;;;;9.30;1.42;;;;;;;16.88;100.00;100925.53;4892056;29;20041;-78
2022/09/13 06:22:36;;;;;;;8.55;2.13;;;;;;;16.93;100.00;100921.00;4876919;29;20048;-79
2022/09/13 06:25:05;;;;;;;5.30;2.25;;;;;;;16.97;100.00;100924.47;4872588;29;20036;-78
2022/09/13 06:27:33;;;;;;;7.30;1.67;;;;;;;16.99;100.00;100922.63;4843861;29;20516;-80
2022/09/13 06:30:02;;;;;;;6.63;1.52;;;;;;;17.00;100.00;100917.28;4837307;29;20041;-79
2022/09/13 06:32:31;;;;;;;11.25;1.83;;;;;;;17.03;100.00;100913.66;4865154;29;20056;-80
2022/09/13 06:34:59;;;;;;;9.02;2.10;;;;;;;17.04;100.00;100920.75;4873283;29;20056;-80
2022/09/13 06:37:28;;;;;;;7.43;2.60;;;;;;;17.05;100.00;100920.72;4865273;29;20052;-79
2022/09/13 06:39:56;;;;;;;5.50;1.45;;;;;;;17.09;100.00;100925.06;4841909;29;20051;-79
2022/09/13 06:42:25;;;;;;;4.75;1.45;;;;;;;17.12;100.00;100927.66;4871066;29;20044;-80
2022/09/13 06:44:55;;;;;;;7.00;1.80;;;;;;;17.15;100.00;100932.91;4866901;29;20067;-79
2022/09/13 06:47:24;;;;;;;8.00;1.75;;;;;;;17.21;100.00;100931.03;4885449;29;20513;-80
2022/09/13 06:49:53;;;;;;;7.57;1.70;;;;;;;17.27;100.00;100928.22;4885562;29;20172;-80
2022/09/13 06:52:21;;;;;;;10.70;2.30;;;;;;;17.31;100.00;100933.41;4883091;29;20055;-79
2022/09/13 06:54:49;;;;;;;7.15;1.80;;;;;;;17.37;100.00;100935.06;4879527;29;20048;-79
2022/09/13 06:57:18;;;;;;;5.55;1.70;;;;;;;17.40;100.00;100929.69;4870728;29;20403;-79
2022/09/13 06:59:46;;;;;;;5.03;1.50;;;;;;;17.46;100.00;100929.53;4827651;29;20037;-79
2022/09/13 07:02:15;;;;;;;3.38;1.83;;;;;;;17.56;100.00;100929.31;4874682;29;20051;-81
2022/09/13 07:04:43;;;;;;;3.72;1.23;;;;;;;17.63;100.00;100934.44;4838752;29;20048;-80
2022/09/13 07:07:15;;;;;;;5.75;1.33;;;;;;;17.73;100.00;100935.09;4866260;29;20060;-81
2022/09/13 07:09:43;;;;;;;6.53;1.55;;;;;;;17.92;100.00;100933.75;4840851;29;20056;-80
2022/09/13 07:12:11;;;;;;;4.85;1.00;;;;;;;18.16;100.00;100941.13;4854820;29;20514;-80
2022/09/13 07:14:46;;;;;;;4.45;1.00;;;;;;;18.23;100.00;100943.59;4855702;29;20060;-79
2022/09/13 07:17:14;;;;;;;2.35;1.00;;;;;;;18.25;100.00;100946.22;4882155;29;20052;-80
2022/09/13 07:19:44;;;;;;;2.97;0.82;;;;;;;18.19;100.00;100944.59;4866920;29;20052;-80
2022/09/13 07:22:12;;;;;;;5.28;1.20;;;;;;;18.14;100.00;100948.31;4863543;29;20044;-79
2022/09/13 07:24:42;;;;;;;2.13;1.10;;;;;;;18.31;100.00;100954.06;4861519;29;20041;-79
2022/09/13 07:27:13;;;;;;;2.63;1.10;;;;;;;18.61;100.00;100949.66;4861920;29;20060;-80
2022/09/13 07:29:42;;;;;;;2.72;0.98;;;;;;;18.99;100.00;100955.69;4864915;29;20220;-80
2022/09/13 07:32:10;;;;;;;6.57;0.98;;;;;;;19.28;100.00;100944.13;4812586;29;20048;-80
2022/09/13 07:35:00;;;;;;;3.88;1.40;;;;;;;19.55;100.00;100949.53;4993005;27;20429;-80
2022/09/13 07:37:28;;;;;;;6.63;1.40;;;;;;;19.85;100.00;100953.00;4955671;28;20651;-80
2022/09/13 07:39:56;;;;;;;7.85;1.48;;;;;;;20.10;100.00;100951.31;4968072;28;20078;-80
2022/09/13 07:42:26;;;;;;;5.43;1.38;;;;;;;20.28;100.00;100955.13;4951031;28;20042;-79
2022/09/13 07:44:55;;;;;;;2.50;1.13;;;;;;;20.39;100.00;100953.78;4976257;28;20066;-79
2022/09/13 07:47:23;;;;;;;10.68;1.13;;;;;;;20.23;100.00;100955.28;4966247;28;20035;-80
2022/09/13 07:49:52;;;;;;;3.42;1.20;;;;;;;20.04;100.00;100963.97;4966812;28;20042;-79
2022/09/13 07:52:21;;;;;;;3.90;1.15;;;;;;;20.08;100.00;100969.22;4999531;28;20175;-79
2022/09/13 07:54:49;;;;;;;2.78;1.20;;;;;;;20.32;100.00;100972.81;4966562;28;20077;-80
2022/09/13 07:57:18;;;;;;;4.50;1.05;;;;;;;20.57;100.00;100973.69;4953487;28;20199;-80
2022/09/13 07:59:48;;;;;;;5.55;1.23;;;;;;;20.78;100.00;100965.84;4968597;28;20051;-80
2022/09/13 08:02:16;;;;;;;4.85;1.27;;;;;;;20.95;100.00;100968.75;4950586;28;20670;-79
2022/09/13 08:04:46;;;;;;;4.30;1.13;;;;;;;21.13;100.00;100968.97;4970400;28;20042;-80
2022/09/13 08:07:15;;;;;;;6.57;1.73;;;;;;;21.30;100.00;100973.66;4922836;28;20455;-81
2022/09/13 08:09:44;;;;;;;3.28;1.75;;;;;;;21.38;100.00;100974.25;4982684;28;20395;-80
2022/09/13 08:12:12;;;;;;;6.25;1.42;;;;;;;21.47;100.00;100970.34;4977412;28;20047;-81
2022/09/13 08:14:41;;;;;;;4.05;1.10;;;;;;;21.65;100.00;100979.47;4987015;28;20039;-80
2022/09/13 08:17:09;;;;;;;5.88;1.23;;;;;;;21.69;100.00;100975.72;4941044;28;20400;-80
2022/09/13 08:19:38;;;;;;;1.73;0.80;;;;;;;21.43;100.00;100978.47;4955158;28;20051;-79
2022/09/13 08:22:06;;;;;;;4.95;1.10;;;;;;;21.48;100.00;100988.19;4968332;28;20050;-80
2022/09/13 08:24:35;;;;;;;4.60;0.90;;;;;;;21.50;100.00;100986.31;4969344;28;20353;-79
2022/09/13 08:27:03;;;;;;;5.10;0.80;;;;;;;21.59;100.00;100985.94;4964425;28;20507;-80
2022/09/13 08:29:32;;;;;;;3.50;1.23;;;;;;;21.85;100.00;100981.28;4941912;28;20443;-79
2022/09/13 08:32:00;;;;;;;6.20;1.20;;;;;;;22.07;99.11;100987.50;4967441;28;20740;-79
2022/09/13 08:34:28;;;;;;;2.42;1.00;;;;;;;22.04;94.73;100990.34;4901749;28;20227;-80
2022/09/13 08:36:57;;;;;;;3.92;1.15;;;;;;;22.05;93.96;100993.88;4958827;28;20419;-79
2022/09/13 08:39:25;;;;;;;6.47;1.20;;;;;;;22.03;91.94;100993.94;4962975;28;20239;-79
2022/09/13 08:42:18;;;;;;;5.47;1.30;;;;;;;21.93;88.15;100989.91;4990275;28;20038;-79
2022/09/13 08:44:54;;;;;;;5.65;0.95;;;;;;;21.76;85.74;100986.13;4967324;28;20046;-79
2022/09/13 08:47:46;;;;;;;4.57;1.20;;;;;;;21.74;86.03;100993.34;4955475;28;20050;-79
2022/09/13 08:50:43;;;;;;;5.60;1.02;;;;;;;21.59;80.10;100992.16;4965512;28;20043;-80
2022/09/13 08:53:29;;;;;;;6.10;1.00;;;;;;;21.43;85.15;100988.31;4959449;28;20058;-79
2022/09/13 08:56:09;;;;;;;4.35;0.90;;;;;;;21.31;86.72;100992.38;4965380;28;20054;-80
2022/09/13 08:59:16;;;;;;;4.57;1.00;;;;;;;21.20;86.59;100991.91;4981187;28;20051;-79
2022/09/13 09:02:22;;;;;;;4.78;0.90;;;;;;;21.10;84.86;100999.44;4960176;28;20404;-80
2022/09/13 09:05:10;;;;;;;5.00;1.10;;;;;;;21.05;87.14;100993.38;4952793;28;20055;-79
2022/09/13 09:07:43;;;;;;;5.78;1.33;;;;;;;21.05;88.27;100990.69;4951532;28;20046;-80
2022/09/13 09:10:23;;;;;;;6.30;1.20;;;;;;;21.05;87.73;100989.81;4953157;28;20034;-80
2022/09/13 09:13:04;;;;;;;6.03;1.20;;;;;;;20.99;86.02;100996.28;4955702;28;20117;-78
2022/09/13 09:15:45;;;;;;;4.13;1.35;;;;;;;20.94;86.75;100995.56;4953332;28;20086;-79
2022/09/13 09:18:20;;;;;;;4.22;1.08;;;;;;;20.80;86.27;100988.06;4945638;28;20500;-79
2022/09/13 09:20:55;;;;;;;4.43;1.25;;;;;;;20.74;87.57;100993.66;4937842;28;20055;-79
2022/09/13 09:23:54;;;;;;;3.30;1.20;;;;;;;20.68;85.41;100989.41;4960719;28;20500;-80
2022/09/13 09:26:28;;;;;;;4.22;1.00;;;;;;;20.61;85.05;100998.59;4936596;28;20031;-79
2022/09/13 09:29:24;;;;;;;4.13;1.10;;;;;;;20.54;85.65;101000.56;4968372;28;20054;-79
2022/09/13 09:32:08;;;;;;;5.28;1.25;;;;;;;20.41;86.31;101000.13;4947445;28;20059;-79
2022/09/13 09:34:45;;;;;;;4.55;1.00;;;;;;;20.27;86.58;101001.56;4970044;28;20047;-78
2022/09/13 09:37:25;;;;;;;4.80;1.10;;;;;;;20.20;85.67;100996.38;4953632;28;20050;-79
2022/09/13 09:40:00;;;;;;;2.60;0.93;;;;;;;20.17;86.92;101000.97;4950859;28;20058;-79
2022/09/13 09:42:34;;;;;;;4.25;1.15;;;;;;;20.19;86.07;100991.13;4954159;28;20054;-78
2022/09/13 09:45:23;;;;;;;5.47;1.02;;;;;;;20.18;86.20;101005.41;4964594;28;20054;-79
2022/09/13 09:47:53;;;;;;;4.45;1.10;;;;;;;20.12;87.28;100998.47;4966448;28;20055;-78
2022/09/13 09:50:28;;;;;;;5.40;0.88;;;;;;;20.17;87.06;101001.88;4937771;28;21774;-80
2022/09/13 09:53:15;;;;;;;3.20;1.13;;;;;;;20.23;86.88;100996.28;4957219;28;20063;-80
2022/09/13 09:55:49;;;;;;;5.25;1.20;;;;;;;20.18;86.49;100997.38;4965534;28;20039;-79
2022/09/13 09:58:36;;;;;;;3.35;0.88;;;;;;;20.18;87.20;100992.03;4958566;28;20057;-78
2022/09/13 10:01:13;;;;;;;2.00;0.90;;;;;;;20.23;88.35;100993.63;4984185;28;20031;-79
2022/09/13 10:03:50;;;;;;;4.55;1.40;;;;;;;20.18;88.67;101008.09;4999939;28;20050;-78
2022/09/13 10:06:23;;;;;;;6.55;1.40;;;;;;;20.07;89.64;101003.09;4981564;28;20042;-80
2022/09/13 10:09:05;;;;;;;6.22;1.42;;;;;;;19.99;90.06;100999.81;5036220;28;20425;-78
2022/09/13 10:11:42;;;;;;;8.20;1.40;;;;;;;19.88;90.66;100997.47;5012265;28;20427;-80
2022/09/13 10:14:44;;;;;;;3.75;0.95;;;;;;;19.78;90.82;101007.59;4952487;28;20164;-81
2022/09/13 10:17:22;;;;;;;3.65;1.05;;;;;;;19.85;92.62;100998.47;4956595;28;20035;-81
2022/09/13 10:20:13;;;;;;;3.88;1.05;;;;;;;20.03;92.79;101001.44;4957399;28;20051;-81
2022/09/13 10:22:42;;;;;;;;;;;;;;;20.18;88.17;100992.03;4936365;28;20039;-84
2022/09/13 10:25:21;;;;;;;3.72;0.85;;;;;;;20.31;90.12;100995.16;4976936;28;20322;-79
2022/09/13 10:27:55;;;;;;;5.40;1.13;;;;;;;20.40;88.07;100994.84;4960728;28;20046;-78
2022/09/13 10:30:27;;;;;;;2.30;0.70;;;;;;;20.47;86.78;100999.03;4953115;28;20058;-78
2022/09/13 10:32:56;;;;;;;3.58;1.13;;;;;;;20.53;85.51;100989.91;4958369;28;20538;-77
2022/09/13 10:35:25;;;;;;;1.13;0.60;;;;;;;20.60;85.47;100992.38;4979624;28;20054;-77
2022/09/13 10:37:54;;;;;;;6.30;1.45;;;;;;;20.70;84.48;100989.31;4924318;28;20043;-77
2022/09/13 10:40:33;;;;;;;4.38;1.05;;;;;;;20.72;82.22;100990.13;4957513;28;20043;-78
2022/09/13 10:43:11;;;;;;;5.32;1.00;;;;;;;20.74;81.19;100990.97;4970817;28;20054;-79
2022/09/13 10:45:41;;;;;;;3.30;0.80;;;;;;;20.68;79.74;101005.47;4979558;28;20058;-79
2022/09/13 10:48:12;;;;;;;5.22;1.30;;;;;;;20.52;79.32;100999.75;4957639;28;20050;-82
2022/09/13 10:51:00;;;;;;;6.65;1.08;;;;;;;20.51;79.11;101000.69;4978462;28;20042;-78
2022/09/13 10:53:37;;;;;;;5.05;0.85;;;;;;;20.62;80.64;100990.50;4953843;28;20061;-78
2022/09/13 10:56:30;;;;;;;5.32;1.30;;;;;;;20.77;78.32;100993.53;5039899;28;20043;-80
2022/09/13 10:59:20;;;;;;;3.13;1.00;;;;;;;20.79;79.63;101000.59;4968647;28;20062;-82
2022/09/13 11:02:22;;;;;;;3.70;0.90;;;;;;;20.72;76.73;100995.50;4952933;28;20047;-77
2022/09/13 11:05:20;;;;;;;5.80;1.00;;;;;;;20.57;80.20;100995.09;4972081;28;20495;-77
2022/09/13 11:07:55;;;;;;;8.40;1.20;;;;;;;20.55;81.52;101002.31;4941047;28;20047;-78
2022/09/13 11:11:06;;;;;;;3.70;1.00;;;;;;;20.46;80.23;101005.31;4963630;28;20035;-79
2022/09/13 11:13:53;;;;;;;3.80;1.00;;;;;;;20.45;82.75;101007.13;4951473;28;20644;-79
2022/09/13 11:16:36;;;;;;;6.85;1.25;;;;;;;20.55;82.86;101013.03;4933481;28;20523;-79
2022/09/13 11:19:27;;;;;;;4.50;1.05;;;;;;;20.48;79.99;101006.13;4968871;28;20058;-79
2022/09/13 11:22:14;;;;;;;5.45;1.30;;;;;;;20.42;81.50;101006.38;4987096;28;20066;-78
2022/09/13 11:25:28;;;;;;;5.38;1.05;;;;;;;20.41;80.96;101013.50;4968368;28;20058;-79
2022/09/13 11:28:10;;;;;;;4.03;1.30;;;;;;;20.35;80.13;101008.38;4963360;28;20043;-79
2022/09/13 11:31:04;;;;;;;4.65;1.40;;;;;;;20.34;81.58;101014.66;4970291;28;20043;-78
2022/09/13 11:33:41;;;;;;;8.40;1.55;;;;;;;20.38;82.21;101010.94;4988355;28;20260;-78
2022/09/13 11:36:45;;;;;;;5.32;1.38;;;;;;;20.64;80.99;101011.84;4995056;28;20040;-79
2022/09/13 11:39:30;;;;;;;5.57;1.20;;;;;;;20.84;82.97;101008.44;4981723;28;20048;-78
2022/09/13 11:41:59;;;;;;;6.90;1.85;;;;;;;21.00;82.72;101011.41;5034861;28;20033;-79
2022/09/13 11:44:49;;;;;;;3.78;1.40;;;;;;;21.00;81.51;101015.00;4999255;28;20262;-78
2022/09/13 11:47:23;;;;;;;4.65;1.58;;;;;;;20.85;82.46;101012.88;4945365;28;20504;-78
2022/09/13 11:50:18;;;;;;;5.30;1.50;;;;;;;20.73;81.18;101010.63;4998055;28;20054;-78
2022/09/13 11:52:55;;;;;;;5.60;1.20;;;;;;;20.67;81.87;101002.84;4986203;28;20043;-78